METAR Data
IDs: Format: Raw Decoded Include TAF

Data at: 1623 UTC 21 Sep 2018

KMTO 211553Z AUTO 26010G20KT 9SM CLR 25/21 A3001 RMK AO2 SLP154 T02500211
KMTO 211453Z AUTO 21008KT 6SM BR CLR 23/22 A2999 RMK AO2 SLP148 60020 T02280217 53009
KMTO 211353Z AUTO 19007KT 7SM BKN110 23/22 A2997 RMK AO2 RAE16 SLP141 P0001 T02280217
KMTO 211253Z AUTO 21008KT 4SM -RA BR FEW060 OVC070 22/21 A2996 RMK AO2 PK WND 22029/1202 RAB03 SLP137 P0019 T02220211
KMTO 211245Z AUTO 21007KT 1 3/4SM +RA BR BKN065 OVC080 22/21 A2996 RMK AO2 PK WND 22029/1202 RAB03 P0018 T02220211
KMTO 211224Z AUTO 25009KT 3SM -RA BR FEW025 BKN050 OVC060 22/21 A2997 RMK AO2 PK WND 22029/1202 LTG DSNT N RAB03 P0012 T02220206
KMTO 211220Z AUTO 25009G20KT 1 3/4SM RA BR FEW025 SCT034 OVC055 22/21 A2996 RMK AO2 PK WND 22029/1202 LTG DSNT N RAB03 P0012 T02220206
KMTO 211211Z AUTO 26012G29KT 1 3/4SM VCTS +RA FEW025 BKN036 BKN050 23/20 A2997 RMK AO2 PK WND 22029/1202 VIS 1V5 LTG DSNT NW-NE RAB03 P0008 T02280200
KMTO 211205Z AUTO 26012G29KT 4SM VCTS -RA FEW025 SCT036 BKN050 24/19 A2996 RMK AO2 PK WND 22029/1202 LTG DSNT W-NE RAB03 PRESRR P0003 T02440189
KMTO 211153Z AUTO 20009KT 10SM SCT060 24/19 A2992 RMK AO2 LTG DSNT W-N SLP125 T02440189 10250 20239 53001
KMTO 211053Z AUTO 20009G16KT 10SM FEW100 24/19 A2991 RMK AO2 SLP121 T02440189
KMTO 210953Z AUTO 20006KT 10SM CLR 24/19 A2992 RMK AO2 SLP125 T02390189
KMTO 210853Z AUTO 19008KT 10SM CLR 24/18 A2992 RMK AO2 SLP123 T02440183 58007
KMTO 210753Z AUTO 20008KT 10SM CLR 24/18 A2993 RMK AO2 SLP128 T02440183
KMTO 210653Z AUTO 20007KT 10SM CLR 24/18 A2994 RMK AO2 SLP129 T02440183
KMTO 210553Z AUTO 18006KT 10SM CLR 24/19 A2994 RMK AO2 SLP130 T02440189 10294 20244 403280222 51007
KMTO 210453Z AUTO 18005KT 10SM CLR 25/19 A2994 RMK AO2 SLP130 T02500189
KMTO 210353Z AUTO 17008KT 10SM CLR 26/19 A2993 RMK AO2 SLP126 T02560189
KMTO 210253Z AUTO 17007KT 10SM CLR 26/19 A2992 RMK AO2 SLP124 T02610189 53000
KMTO 210153Z AUTO 17008KT 10SM CLR 27/19 A2991 RMK AO2 SLP121 T02670189
KMTO 210053Z AUTO 18008KT 10SM CLR 28/19 A2991 RMK AO2 SLP121 T02830189
KMTO 202353Z AUTO 17007KT 10SM CLR 29/19 A2992 RMK AO2 SLP124 T02940194 10328 20294 58008
KMTO 202253Z AUTO 20009G17KT 10SM CLR 31/18 A2993 RMK AO2 SLP127 T03110183
KMTO 202153Z AUTO 22008G22KT 10SM CLR 32/18 A2994 RMK AO2 SLP131 T03220178
KMTO 202053Z AUTO 18009KT 10SM CLR 33/19 A2994 RMK AO2 SLP131 T03280194 56015
KMTO 201953Z AUTO 22011G21KT 10SM FEW055 33/20 A2995 RMK AO2 SLP134 T03280200
KMTO 201853Z AUTO 18012G20KT 10SM FEW060 32/20 A2997 RMK AO2 SLP139 T03220200
KMTO 201753Z AUTO 22007KT 10SM SCT050 BKN065 33/21 A2999 RMK AO2 SLP147 T03280206 10328 20228 58015
KMTO 201653Z AUTO 23009G19KT 10SM CLR 32/20 A3001 RMK AO2 SLP154 T03220200
KMTO 201553Z AUTO 19008KT 160V220 7SM CLR 31/22 A3002 RMK AO2 SLP159 T03060217
KMTO 201453Z AUTO 19007KT 7SM CLR 28/21 A3003 RMK AO2 SLP163 T02780211 52010
KMTO 201353Z AUTO 18007KT 7SM CLR 26/21 A3002 RMK AO2 SLP158 T02560211
KMTO 201253Z AUTO 18007KT 8SM CLR 23/21 A3002 RMK AO2 SLP158 T02330206
KMTO 201153Z AUTO 18006KT 7SM CLR 23/21 A3000 RMK AO2 SLP152 T02280206 10233 20222 53004 $
KMTO 201053Z AUTO 18006KT 9SM CLR 23/21 A2999 RMK AO2 SLP147 T02280206 $
KMTO 200953Z AUTO 17005KT 10SM CLR 23/21 A2999 RMK AO2 SLP148 T02280206 $
KMTO 200853Z AUTO 19004KT 10SM CLR 23/21 A2999 RMK AO2 SLP149 T02280206 51007 $
KMTO 200753Z AUTO 20005KT 10SM CLR 23/21 A2999 RMK AO2 SLP147 T02280206 $
KMTO 200653Z AUTO 19006KT 10SM CLR 23/21 A2998 RMK AO2 SLP145 T02280206 $
KMTO 200553Z AUTO 19005KT 10SM CLR 23/21 A2997 RMK AO2 SLP141 T02330211 10283 20233 403170189 55000 $
KMTO 200453Z AUTO 20006KT 10SM CLR 24/21 A2996 RMK AO2 SLP140 T02390211 $